sensor_id;sensor_type;location;lat;lon;timestamp;P1;durP1;ratioP1;P2;durP2;ratioP2
13590;SDS011;6866;50.778;7.206;2023-04-24T00:00:02;1.83;;;0.63;;
13590;SDS011;6866;50.778;7.206;2023-04-24T00:02:34;1.17;;;0.60;;
13590;SDS011;6866;50.778;7.206;2023-04-24T00:05:02;1.05;;;0.60;;
13590;SDS011;6866;50.778;7.206;2023-04-24T00:07:29;0.85;;;0.60;;
13590;SDS011;6866;50.778;7.206;2023-04-24T00:09:55;3.78;;;0.70;;
13590;SDS011;6866;50.778;7.206;2023-04-24T00:12:20;1.38;;;0.60;;
13590;SDS011;6866;50.778;7.206;2023-04-24T00:14:46;3.53;;;0.63;;
13590;SDS011;6866;50.778;7.206;2023-04-24T00:17:12;1.17;;;0.60;;
13590;SDS011;6866;50.778;7.206;2023-04-24T00:19:38;1.38;;;0.52;;
13590;SDS011;6866;50.778;7.206;2023-04-24T00:22:03;1.60;;;0.65;;
13590;SDS011;6866;50.778;7.206;2023-04-24T00:24:29;1.30;;;0.60;;
13590;SDS011;6866;50.778;7.206;2023-04-24T00:26:54;1.27;;;0.70;;
13590;SDS011;6866;50.778;7.206;2023-04-24T00:29:20;2.55;;;0.88;;
13590;SDS011;6866;50.778;7.206;2023-04-24T00:31:45;2.22;;;0.50;;
13590;SDS011;6866;50.778;7.206;2023-04-24T00:34:11;1.05;;;0.50;;
13590;SDS011;6866;50.778;7.206;2023-04-24T00:36:37;1.67;;;0.65;;
13590;SDS011;6866;50.778;7.206;2023-04-24T00:39:03;1.73;;;0.60;;
13590;SDS011;6866;50.778;7.206;2023-04-24T00:41:28;1.40;;;0.50;;
13590;SDS011;6866;50.778;7.206;2023-04-24T00:43:55;2.53;;;0.70;;
13590;SDS011;6866;50.778;7.206;2023-04-24T00:46:20;0.98;;;0.60;;
13590;SDS011;6866;50.778;7.206;2023-04-24T00:48:46;2.03;;;0.60;;
13590;SDS011;6866;50.778;7.206;2023-04-24T00:51:12;1.42;;;0.55;;
13590;SDS011;6866;50.778;7.206;2023-04-24T00:53:38;1.83;;;0.60;;
13590;SDS011;6866;50.778;7.206;2023-04-24T00:56:03;0.65;;;0.43;;
13590;SDS011;6866;50.778;7.206;2023-04-24T00:58:30;2.25;;;0.60;;
13590;SDS011;6866;50.778;7.206;2023-04-24T01:03:31;2.28;;;0.68;;
13590;SDS011;6866;50.778;7.206;2023-04-24T01:05:58;2.67;;;0.60;;
13590;SDS011;6866;50.778;7.206;2023-04-24T01:08:24;1.75;;;0.50;;
13590;SDS011;6866;50.778;7.206;2023-04-24T01:10:51;1.48;;;0.60;;
13590;SDS011;6866;50.778;7.206;2023-04-24T01:13:18;0.90;;;0.57;;
13590;SDS011;6866;50.778;7.206;2023-04-24T01:15:44;1.58;;;0.50;;
13590;SDS011;6866;50.778;7.206;2023-04-24T01:18:10;1.25;;;0.60;;
13590;SDS011;6866;50.778;7.206;2023-04-24T01:20:35;1.40;;;0.60;;
13590;SDS011;6866;50.778;7.206;2023-04-24T01:23:04;0.60;;;0.50;;
13590;SDS011;6866;50.778;7.206;2023-04-24T01:25:33;2.97;;;0.70;;
13590;SDS011;6866;50.778;7.206;2023-04-24T01:27:59;1.58;;;0.60;;
13590;SDS011;6866;50.778;7.206;2023-04-24T01:30:26;4.32;;;1.00;;
13590;SDS011;6866;50.778;7.206;2023-04-24T01:32:52;1.05;;;0.50;;
13590;SDS011;6866;50.778;7.206;2023-04-24T01:35:18;1.15;;;0.50;;
13590;SDS011;6866;50.778;7.206;2023-04-24T01:37:44;1.00;;;0.60;;
13590;SDS011;6866;50.778;7.206;2023-04-24T01:40:10;1.73;;;0.60;;
13590;SDS011;6866;50.778;7.206;2023-04-24T01:42:36;4.18;;;1.33;;
13590;SDS011;6866;50.778;7.206;2023-04-24T01:45:03;4.07;;;1.00;;
13590;SDS011;6866;50.778;7.206;2023-04-24T01:47:30;3.15;;;1.00;;
13590;SDS011;6866;50.778;7.206;2023-04-24T01:49:56;3.92;;;1.08;;
13590;SDS011;6866;50.778;7.206;2023-04-24T01:52:22;1.75;;;0.95;;
13590;SDS011;6866;50.778;7.206;2023-04-24T01:54:47;2.78;;;1.02;;
13590;SDS011;6866;50.778;7.206;2023-04-24T01:57:13;2.50;;;1.00;;
13590;SDS011;6866;50.778;7.206;2023-04-24T01:59:39;2.55;;;1.40;;
13590;SDS011;6866;50.778;7.206;2023-04-24T02:02:05;2.17;;;1.23;;
13590;SDS011;6866;50.778;7.206;2023-04-24T02:04:31;2.33;;;1.13;;
13590;SDS011;6866;50.778;7.206;2023-04-24T02:06:56;3.38;;;1.27;;
13590;SDS011;6866;50.778;7.206;2023-04-24T02:09:22;2.65;;;1.20;;
13590;SDS011;6866;50.778;7.206;2023-04-24T02:11:47;3.92;;;1.23;;
13590;SDS011;6866;50.778;7.206;2023-04-24T02:14:13;3.08;;;1.20;;
13590;SDS011;6866;50.778;7.206;2023-04-24T02:16:39;4.15;;;1.23;;
13590;SDS011;6866;50.778;7.206;2023-04-24T02:19:04;3.45;;;1.20;;
13590;SDS011;6866;50.778;7.206;2023-04-24T02:21:30;5.05;;;1.85;;
13590;SDS011;6866;50.778;7.206;2023-04-24T02:23:56;3.58;;;1.35;;
13590;SDS011;6866;50.778;7.206;2023-04-24T02:26:21;3.08;;;1.00;;
13590;SDS011;6866;50.778;7.206;2023-04-24T02:28:47;2.38;;;1.20;;
13590;SDS011;6866;50.778;7.206;2023-04-24T02:31:13;3.45;;;1.50;;
13590;SDS011;6866;50.778;7.206;2023-04-24T02:33:39;6.05;;;1.70;;
13590;SDS011;6866;50.778;7.206;2023-04-24T02:36:05;6.13;;;2.20;;
13590;SDS011;6866;50.778;7.206;2023-04-24T02:38:30;4.40;;;2.15;;
13590;SDS011;6866;50.778;7.206;2023-04-24T02:40:56;4.80;;;2.50;;
13590;SDS011;6866;50.778;7.206;2023-04-24T02:43:21;6.03;;;2.85;;
13590;SDS011;6866;50.778;7.206;2023-04-24T02:45:47;5.25;;;2.70;;
13590;SDS011;6866;50.778;7.206;2023-04-24T02:48:12;7.40;;;2.92;;
13590;SDS011;6866;50.778;7.206;2023-04-24T02:50:38;5.55;;;3.00;;
13590;SDS011;6866;50.778;7.206;2023-04-24T02:53:04;6.13;;;3.80;;
13590;SDS011;6866;50.778;7.206;2023-04-24T02:55:29;6.75;;;3.30;;
13590;SDS011;6866;50.778;7.206;2023-04-24T02:57:55;6.72;;;3.58;;
13590;SDS011;6866;50.778;7.206;2023-04-24T03:00:21;6.13;;;3.13;;
13590;SDS011;6866;50.778;7.206;2023-04-24T03:02:46;7.40;;;3.80;;
13590;SDS011;6866;50.778;7.206;2023-04-24T03:05:12;6.38;;;3.35;;
13590;SDS011;6866;50.778;7.206;2023-04-24T03:07:37;5.82;;;3.03;;
13590;SDS011;6866;50.778;7.206;2023-04-24T03:10:04;5.53;;;3.20;;
13590;SDS011;6866;50.778;7.206;2023-04-24T03:12:30;5.82;;;2.88;;
13590;SDS011;6866;50.778;7.206;2023-04-24T03:14:56;5.43;;;2.70;;
13590;SDS011;6866;50.778;7.206;2023-04-24T03:17:22;4.63;;;2.78;;
13590;SDS011;6866;50.778;7.206;2023-04-24T03:19:47;5.28;;;2.80;;
13590;SDS011;6866;50.778;7.206;2023-04-24T03:22:13;6.35;;;3.35;;
13590;SDS011;6866;50.778;7.206;2023-04-24T03:24:38;5.32;;;3.30;;
13590;SDS011;6866;50.778;7.206;2023-04-24T03:27:05;4.90;;;3.40;;
13590;SDS011;6866;50.778;7.206;2023-04-24T03:29:30;5.38;;;3.63;;
13590;SDS011;6866;50.778;7.206;2023-04-24T03:31:56;5.60;;;3.63;;
13590;SDS011;6866;50.778;7.206;2023-04-24T03:34:21;6.68;;;3.58;;
13590;SDS011;6866;50.778;7.206;2023-04-24T03:36:47;6.57;;;3.67;;
13590;SDS011;6866;50.778;7.206;2023-04-24T03:39:12;6.78;;;3.30;;
13590;SDS011;6866;50.778;7.206;2023-04-24T03:41:38;11.55;;;3.95;;
13590;SDS011;6866;50.778;7.206;2023-04-24T03:44:04;5.50;;;4.07;;
13590;SDS011;6866;50.778;7.206;2023-04-24T03:46:29;6.82;;;3.67;;
13590;SDS011;6866;50.778;7.206;2023-04-24T03:48:55;6.90;;;3.75;;
13590;SDS011;6866;50.778;7.206;2023-04-24T03:51:20;8.40;;;3.60;;
13590;SDS011;6866;50.778;7.206;2023-04-24T03:53:46;5.05;;;3.58;;
13590;SDS011;6866;50.778;7.206;2023-04-24T03:56:12;6.72;;;3.60;;
13590;SDS011;6866;50.778;7.206;2023-04-24T03:58:37;7.13;;;4.07;;
13590;SDS011;6866;50.778;7.206;2023-04-24T04:01:03;6.18;;;3.70;;
13590;SDS011;6866;50.778;7.206;2023-04-24T04:03:28;7.22;;;3.67;;
13590;SDS011;6866;50.778;7.206;2023-04-24T04:05:54;8.05;;;3.53;;
13590;SDS011;6866;50.778;7.206;2023-04-24T04:08:20;5.25;;;2.95;;
13590;SDS011;6866;50.778;7.206;2023-04-24T04:10:45;6.80;;;3.72;;
13590;SDS011;6866;50.778;7.206;2023-04-24T04:13:11;6.07;;;3.03;;
13590;SDS011;6866;50.778;7.206;2023-04-24T04:15:36;5.07;;;3.40;;
13590;SDS011;6866;50.778;7.206;2023-04-24T04:18:02;6.63;;;3.22;;
13590;SDS011;6866;50.778;7.206;2023-04-24T04:20:28;6.35;;;3.40;;
13590;SDS011;6866;50.778;7.206;2023-04-24T04:22:53;6.55;;;3.22;;
13590;SDS011;6866;50.778;7.206;2023-04-24T04:25:19;5.28;;;3.20;;
13590;SDS011;6866;50.778;7.206;2023-04-24T04:27:45;7.03;;;3.30;;
13590;SDS011;6866;50.778;7.206;2023-04-24T04:30:12;6.10;;;3.40;;
13590;SDS011;6866;50.778;7.206;2023-04-24T04:32:39;6.65;;;3.25;;
13590;SDS011;6866;50.778;7.206;2023-04-24T04:35:04;7.32;;;3.35;;
13590;SDS011;6866;50.778;7.206;2023-04-24T04:37:30;5.63;;;3.33;;
13590;SDS011;6866;50.778;7.206;2023-04-24T04:39:58;4.88;;;2.97;;
13590;SDS011;6866;50.778;7.206;2023-04-24T04:42:24;5.55;;;2.85;;
13590;SDS011;6866;50.778;7.206;2023-04-24T04:44:50;7.20;;;3.40;;
13590;SDS011;6866;50.778;7.206;2023-04-24T04:47:16;6.30;;;3.30;;
13590;SDS011;6866;50.778;7.206;2023-04-24T04:49:42;8.43;;;3.13;;
13590;SDS011;6866;50.778;7.206;2023-04-24T04:52:08;6.32;;;3.40;;
13590;SDS011;6866;50.778;7.206;2023-04-24T04:54:34;7.65;;;3.63;;
13590;SDS011;6866;50.778;7.206;2023-04-24T04:56:59;6.32;;;3.33;;
13590;SDS011;6866;50.778;7.206;2023-04-24T04:59:25;5.20;;;3.30;;
13590;SDS011;6866;50.778;7.206;2023-04-24T05:01:51;7.85;;;3.67;;
13590;SDS011;6866;50.778;7.206;2023-04-24T05:04:17;5.47;;;3.00;;
13590;SDS011;6866;50.778;7.206;2023-04-24T05:06:43;5.75;;;3.20;;
13590;SDS011;6866;50.778;7.206;2023-04-24T05:09:09;5.03;;;3.15;;
13590;SDS011;6866;50.778;7.206;2023-04-24T05:11:34;5.97;;;3.35;;
13590;SDS011;6866;50.778;7.206;2023-04-24T05:14:00;5.70;;;3.60;;
13590;SDS011;6866;50.778;7.206;2023-04-24T05:16:26;6.75;;;3.55;;
13590;SDS011;6866;50.778;7.206;2023-04-24T05:18:51;7.38;;;3.70;;
13590;SDS011;6866;50.778;7.206;2023-04-24T05:21:17;5.43;;;3.58;;
13590;SDS011;6866;50.778;7.206;2023-04-24T05:23:42;5.85;;;3.50;;
13590;SDS011;6866;50.778;7.206;2023-04-24T05:26:08;5.57;;;3.67;;
13590;SDS011;6866;50.778;7.206;2023-04-24T05:28:34;8.40;;;3.85;;
13590;SDS011;6866;50.778;7.206;2023-04-24T05:31:01;7.05;;;3.88;;
13590;SDS011;6866;50.778;7.206;2023-04-24T05:33:27;9.10;;;3.97;;
13590;SDS011;6866;50.778;7.206;2023-04-24T05:35:53;6.60;;;3.63;;
13590;SDS011;6866;50.778;7.206;2023-04-24T05:38:18;5.72;;;3.58;;
13590;SDS011;6866;50.778;7.206;2023-04-24T05:40:45;8.95;;;3.80;;
13590;SDS011;6866;50.778;7.206;2023-04-24T05:43:11;7.95;;;3.90;;
13590;SDS011;6866;50.778;7.206;2023-04-24T05:45:37;7.47;;;3.80;;
13590;SDS011;6866;50.778;7.206;2023-04-24T05:48:03;7.90;;;3.55;;
13590;SDS011;6866;50.778;7.206;2023-04-24T05:50:29;7.53;;;3.60;;
13590;SDS011;6866;50.778;7.206;2023-04-24T05:52:55;6.97;;;3.58;;
13590;SDS011;6866;50.778;7.206;2023-04-24T05:55:23;9.60;;;4.00;;
13590;SDS011;6866;50.778;7.206;2023-04-24T05:57:49;7.90;;;4.20;;
13590;SDS011;6866;50.778;7.206;2023-04-24T06:00:15;7.75;;;4.07;;
13590;SDS011;6866;50.778;7.206;2023-04-24T06:02:40;7.07;;;4.32;;
13590;SDS011;6866;50.778;7.206;2023-04-24T06:05:06;7.43;;;4.07;;
13590;SDS011;6866;50.778;7.206;2023-04-24T06:07:33;8.48;;;4.25;;
13590;SDS011;6866;50.778;7.206;2023-04-24T06:09:58;8.00;;;4.13;;
13590;SDS011;6866;50.778;7.206;2023-04-24T06:12:25;8.32;;;4.10;;
13590;SDS011;6866;50.778;7.206;2023-04-24T06:14:51;6.95;;;4.05;;
13590;SDS011;6866;50.778;7.206;2023-04-24T06:17:16;6.18;;;4.22;;
13590;SDS011;6866;50.778;7.206;2023-04-24T06:19:42;6.90;;;4.00;;
13590;SDS011;6866;50.778;7.206;2023-04-24T06:22:08;10.98;;;4.30;;
13590;SDS011;6866;50.778;7.206;2023-04-24T06:24:34;8.10;;;4.78;;
13590;SDS011;6866;50.778;7.206;2023-04-24T06:26:59;8.80;;;4.80;;
13590;SDS011;6866;50.778;7.206;2023-04-24T06:29:26;11.18;;;4.70;;
13590;SDS011;6866;50.778;7.206;2023-04-24T06:31:52;8.38;;;4.57;;
13590;SDS011;6866;50.778;7.206;2023-04-24T06:34:17;8.38;;;4.80;;
13590;SDS011;6866;50.778;7.206;2023-04-24T06:36:43;7.97;;;4.57;;
13590;SDS011;6866;50.778;7.206;2023-04-24T06:39:09;9.05;;;4.47;;
13590;SDS011;6866;50.778;7.206;2023-04-24T06:41:35;11.10;;;4.82;;
13590;SDS011;6866;50.778;7.206;2023-04-24T06:44:00;8.95;;;5.00;;
13590;SDS011;6866;50.778;7.206;2023-04-24T06:46:26;9.05;;;4.95;;
13590;SDS011;6866;50.778;7.206;2023-04-24T06:48:52;8.15;;;4.80;;
13590;SDS011;6866;50.778;7.206;2023-04-24T06:51:24;9.77;;;4.80;;
13590;SDS011;6866;50.778;7.206;2023-04-24T06:53:54;6.60;;;4.70;;
13590;SDS011;6866;50.778;7.206;2023-04-24T06:56:21;8.48;;;5.10;;
13590;SDS011;6866;50.778;7.206;2023-04-24T06:58:47;11.27;;;5.22;;
13590;SDS011;6866;50.778;7.206;2023-04-24T07:01:12;10.00;;;4.90;;
13590;SDS011;6866;50.778;7.206;2023-04-24T07:03:38;8.68;;;5.15;;
13590;SDS011;6866;50.778;7.206;2023-04-24T07:06:04;8.80;;;5.10;;
13590;SDS011;6866;50.778;7.206;2023-04-24T07:08:30;10.00;;;5.53;;
13590;SDS011;6866;50.778;7.206;2023-04-24T07:10:56;8.90;;;5.20;;
13590;SDS011;6866;50.778;7.206;2023-04-24T07:13:22;8.68;;;4.97;;
13590;SDS011;6866;50.778;7.206;2023-04-24T07:15:48;8.93;;;4.30;;
13590;SDS011;6866;50.778;7.206;2023-04-24T07:18:15;9.95;;;4.30;;
13590;SDS011;6866;50.778;7.206;2023-04-24T07:20:41;5.10;;;3.30;;
13590;SDS011;6866;50.778;7.206;2023-04-24T07:23:07;8.18;;;3.75;;
13590;SDS011;6866;50.778;7.206;2023-04-24T07:25:32;6.82;;;3.40;;
13590;SDS011;6866;50.778;7.206;2023-04-24T07:27:58;6.78;;;3.35;;
13590;SDS011;6866;50.778;7.206;2023-04-24T07:30:24;6.10;;;3.53;;
13590;SDS011;6866;50.778;7.206;2023-04-24T07:32:50;4.65;;;2.80;;
13590;SDS011;6866;50.778;7.206;2023-04-24T07:35:15;4.07;;;2.83;;
13590;SDS011;6866;50.778;7.206;2023-04-24T07:37:41;4.65;;;2.90;;
13590;SDS011;6866;50.778;7.206;2023-04-24T07:40:10;5.10;;;2.90;;
13590;SDS011;6866;50.778;7.206;2023-04-24T07:42:37;4.30;;;2.40;;
13590;SDS011;6866;50.778;7.206;2023-04-24T07:45:03;4.43;;;2.60;;
13590;SDS011;6866;50.778;7.206;2023-04-24T07:47:29;5.38;;;2.70;;
13590;SDS011;6866;50.778;7.206;2023-04-24T07:49:55;5.47;;;2.80;;
13590;SDS011;6866;50.778;7.206;2023-04-24T07:52:21;6.10;;;2.40;;
13590;SDS011;6866;50.778;7.206;2023-04-24T07:54:46;6.20;;;2.80;;
13590;SDS011;6866;50.778;7.206;2023-04-24T07:57:12;6.60;;;2.60;;
13590;SDS011;6866;50.778;7.206;2023-04-24T07:59:38;6.22;;;3.22;;
13590;SDS011;6866;50.778;7.206;2023-04-24T08:02:04;4.97;;;1.90;;
13590;SDS011;6866;50.778;7.206;2023-04-24T08:04:31;2.88;;;1.73;;
13590;SDS011;6866;50.778;7.206;2023-04-24T08:06:56;3.58;;;1.83;;
13590;SDS011;6866;50.778;7.206;2023-04-24T08:09:22;4.13;;;1.80;;
13590;SDS011;6866;50.778;7.206;2023-04-24T08:11:48;3.45;;;1.75;;
13590;SDS011;6866;50.778;7.206;2023-04-24T08:14:13;3.67;;;1.52;;
13590;SDS011;6866;50.778;7.206;2023-04-24T08:16:39;6.45;;;1.50;;
13590;SDS011;6866;50.778;7.206;2023-04-24T08:19:05;3.88;;;1.25;;
13590;SDS011;6866;50.778;7.206;2023-04-24T08:21:31;3.50;;;1.52;;
13590;SDS011;6866;50.778;7.206;2023-04-24T08:23:57;3.33;;;1.17;;
13590;SDS011;6866;50.778;7.206;2023-04-24T08:26:22;4.57;;;1.00;;
13590;SDS011;6866;50.778;7.206;2023-04-24T08:28:48;3.13;;;1.30;;
13590;SDS011;6866;50.778;7.206;2023-04-24T08:31:14;5.15;;;1.33;;
13590;SDS011;6866;50.778;7.206;2023-04-24T08:33:40;2.47;;;1.27;;
13590;SDS011;6866;50.778;7.206;2023-04-24T08:36:06;3.97;;;1.42;;
13590;SDS011;6866;50.778;7.206;2023-04-24T08:38:32;2.53;;;1.20;;
13590;SDS011;6866;50.778;7.206;2023-04-24T08:40:59;3.40;;;1.45;;
13590;SDS011;6866;50.778;7.206;2023-04-24T08:43:26;4.40;;;1.40;;
13590;SDS011;6866;50.778;7.206;2023-04-24T08:45:52;2.50;;;1.30;;
13590;SDS011;6866;50.778;7.206;2023-04-24T08:48:21;3.03;;;1.30;;
13590;SDS011;6866;50.778;7.206;2023-04-24T08:50:47;6.22;;;1.40;;
13590;SDS011;6866;50.778;7.206;2023-04-24T08:53:15;5.75;;;1.85;;
13590;SDS011;6866;50.778;7.206;2023-04-24T08:55:41;4.10;;;1.70;;
13590;SDS011;6866;50.778;7.206;2023-04-24T08:58:11;6.97;;;2.03;;
13590;SDS011;6866;50.778;7.206;2023-04-24T09:00:37;4.30;;;1.45;;
13590;SDS011;6866;50.778;7.206;2023-04-24T09:03:04;8.23;;;1.65;;
13590;SDS011;6866;50.778;7.206;2023-04-24T09:05:31;2.92;;;1.50;;
13590;SDS011;6866;50.778;7.206;2023-04-24T09:07:58;5.45;;;1.63;;
13590;SDS011;6866;50.778;7.206;2023-04-24T09:10:26;3.42;;;1.52;;
13590;SDS011;6866;50.778;7.206;2023-04-24T09:12:55;3.75;;;1.58;;
13590;SDS011;6866;50.778;7.206;2023-04-24T09:15:23;3.67;;;1.60;;
13590;SDS011;6866;50.778;7.206;2023-04-24T09:17:49;4.85;;;1.83;;
13590;SDS011;6866;50.778;7.206;2023-04-24T09:20:15;4.13;;;1.90;;
13590;SDS011;6866;50.778;7.206;2023-04-24T09:22:41;5.97;;;2.60;;
13590;SDS011;6866;50.778;7.206;2023-04-24T09:25:09;8.43;;;3.00;;
13590;SDS011;6866;50.778;7.206;2023-04-24T09:27:38;4.45;;;2.40;;
13590;SDS011;6866;50.778;7.206;2023-04-24T09:30:07;6.95;;;3.25;;
13590;SDS011;6866;50.778;7.206;2023-04-24T09:32:33;10.00;;;4.50;;
13590;SDS011;6866;50.778;7.206;2023-04-24T09:35:06;5.40;;;2.60;;
13590;SDS011;6866;50.778;7.206;2023-04-24T09:37:37;11.93;;;4.68;;
13590;SDS011;6866;50.778;7.206;2023-04-24T09:40:07;10.15;;;4.63;;
13590;SDS011;6866;50.778;7.206;2023-04-24T09:42:39;9.18;;;4.20;;
13590;SDS011;6866;50.778;7.206;2023-04-24T09:45:10;8.68;;;3.88;;
13590;SDS011;6866;50.778;7.206;2023-04-24T09:47:39;8.07;;;3.72;;
13590;SDS011;6866;50.778;7.206;2023-04-24T09:50:12;7.28;;;3.63;;
13590;SDS011;6866;50.778;7.206;2023-04-24T09:52:40;7.65;;;3.97;;
13590;SDS011;6866;50.778;7.206;2023-04-24T09:55:17;7.60;;;3.70;;
13590;SDS011;6866;50.778;7.206;2023-04-24T09:58:02;8.07;;;3.20;;
13590;SDS011;6866;50.778;7.206;2023-04-24T10:00:31;7.80;;;3.08;;
13590;SDS011;6866;50.778;7.206;2023-04-24T10:02:58;5.22;;;2.78;;
13590;SDS011;6866;50.778;7.206;2023-04-24T10:05:31;7.90;;;3.33;;
13590;SDS011;6866;50.778;7.206;2023-04-24T10:08:02;7.78;;;3.22;;
13590;SDS011;6866;50.778;7.206;2023-04-24T10:10:30;5.13;;;2.90;;
13590;SDS011;6866;50.778;7.206;2023-04-24T10:12:57;5.35;;;3.05;;
13590;SDS011;6866;50.778;7.206;2023-04-24T10:15:25;5.53;;;3.35;;
13590;SDS011;6866;50.778;7.206;2023-04-24T10:17:51;7.10;;;3.35;;
13590;SDS011;6866;50.778;7.206;2023-04-24T10:20:18;5.75;;;3.00;;
13590;SDS011;6866;50.778;7.206;2023-04-24T10:22:49;6.45;;;3.20;;
13590;SDS011;6866;50.778;7.206;2023-04-24T10:25:19;7.25;;;3.30;;
13590;SDS011;6866;50.778;7.206;2023-04-24T10:27:47;8.07;;;3.30;;
13590;SDS011;6866;50.778;7.206;2023-04-24T10:30:14;7.00;;;3.65;;
13590;SDS011;6866;50.778;7.206;2023-04-24T10:32:40;5.20;;;3.25;;
13590;SDS011;6866;50.778;7.206;2023-04-24T10:35:06;6.78;;;3.50;;
13590;SDS011;6866;50.778;7.206;2023-04-24T10:37:49;6.97;;;3.40;;
13590;SDS011;6866;50.778;7.206;2023-04-24T10:40:31;5.78;;;2.95;;
13590;SDS011;6866;50.778;7.206;2023-04-24T10:42:58;7.40;;;3.10;;
13590;SDS011;6866;50.778;7.206;2023-04-24T10:45:26;5.50;;;3.20;;
13590;SDS011;6866;50.778;7.206;2023-04-24T10:47:53;7.68;;;3.13;;
13590;SDS011;6866;50.778;7.206;2023-04-24T10:50:19;4.93;;;2.97;;
13590;SDS011;6866;50.778;7.206;2023-04-24T10:52:48;7.70;;;3.28;;
13590;SDS011;6866;50.778;7.206;2023-04-24T10:58:06;7.88;;;3.40;;
13590;SDS011;6866;50.778;7.206;2023-04-24T11:00:31;6.80;;;3.28;;
13590;SDS011;6866;50.778;7.206;2023-04-24T11:02:57;8.38;;;3.03;;
13590;SDS011;6866;50.778;7.206;2023-04-24T11:05:49;7.35;;;3.30;;
13590;SDS011;6866;50.778;7.206;2023-04-24T11:08:26;6.60;;;3.28;;
13590;SDS011;6866;50.778;7.206;2023-04-24T11:10:56;10.32;;;3.63;;
13590;SDS011;6866;50.778;7.206;2023-04-24T11:13:27;13.73;;;4.78;;
13590;SDS011;6866;50.778;7.206;2023-04-24T11:16:26;9.45;;;3.90;;
13590;SDS011;6866;50.778;7.206;2023-04-24T11:19:04;8.88;;;3.47;;
13590;SDS011;6866;50.778;7.206;2023-04-24T11:26:58;10.02;;;4.30;;
13590;SDS011;6866;50.778;7.206;2023-04-24T11:35:07;9.15;;;4.13;;
13590;SDS011;6866;50.778;7.206;2023-04-24T11:37:42;11.68;;;4.95;;
13590;SDS011;6866;50.778;7.206;2023-04-24T11:40:12;8.82;;;5.30;;
13590;SDS011;6866;50.778;7.206;2023-04-24T11:42:41;12.02;;;4.97;;
13590;SDS011;6866;50.778;7.206;2023-04-24T11:45:08;10.88;;;5.47;;
13590;SDS011;6866;50.778;7.206;2023-04-24T11:47:35;10.70;;;5.22;;
13590;SDS011;6866;50.778;7.206;2023-04-24T11:50:01;12.38;;;5.82;;
13590;SDS011;6866;50.778;7.206;2023-04-24T11:52:28;14.98;;;6.13;;
13590;SDS011;6866;50.778;7.206;2023-04-24T11:54:54;15.52;;;5.72;;
13590;SDS011;6866;50.778;7.206;2023-04-24T11:57:20;12.52;;;5.53;;
13590;SDS011;6866;50.778;7.206;2023-04-24T11:59:52;13.43;;;5.90;;
13590;SDS011;6866;50.778;7.206;2023-04-24T12:02:25;13.95;;;5.88;;
13590;SDS011;6866;50.778;7.206;2023-04-24T12:04:55;21.75;;;11.60;;
13590;SDS011;6866;50.778;7.206;2023-04-24T12:07:21;10.13;;;5.57;;
13590;SDS011;6866;50.778;7.206;2023-04-24T12:09:48;12.85;;;5.50;;
13590;SDS011;6866;50.778;7.206;2023-04-24T12:12:23;12.75;;;5.82;;
13590;SDS011;6866;50.778;7.206;2023-04-24T12:14:55;9.82;;;5.07;;
13590;SDS011;6866;50.778;7.206;2023-04-24T12:20:01;10.25;;;4.68;;
13590;SDS011;6866;50.778;7.206;2023-04-24T12:22:27;10.48;;;4.60;;
13590;SDS011;6866;50.778;7.206;2023-04-24T12:25:01;12.60;;;5.00;;
13590;SDS011;6866;50.778;7.206;2023-04-24T12:27:29;15.07;;;4.97;;
13590;SDS011;6866;50.778;7.206;2023-04-24T12:29:58;9.65;;;5.07;;
13590;SDS011;6866;50.778;7.206;2023-04-24T12:32:25;13.80;;;5.25;;
13590;SDS011;6866;50.778;7.206;2023-04-24T12:34:52;13.38;;;5.32;;
13590;SDS011;6866;50.778;7.206;2023-04-24T12:37:18;13.70;;;5.13;;
13590;SDS011;6866;50.778;7.206;2023-04-24T12:40:06;11.63;;;4.50;;
13590;SDS011;6866;50.778;7.206;2023-04-24T12:42:35;14.65;;;5.57;;
13590;SDS011;6866;50.778;7.206;2023-04-24T12:45:06;13.40;;;5.20;;
13590;SDS011;6866;50.778;7.206;2023-04-24T12:47:33;14.10;;;5.10;;
13590;SDS011;6866;50.778;7.206;2023-04-24T12:49:59;12.40;;;5.07;;
13590;SDS011;6866;50.778;7.206;2023-04-24T12:52:26;10.43;;;5.00;;
13590;SDS011;6866;50.778;7.206;2023-04-24T12:54:53;13.48;;;5.70;;
13590;SDS011;6866;50.778;7.206;2023-04-24T12:57:21;10.82;;;4.80;;
13590;SDS011;6866;50.778;7.206;2023-04-24T12:59:54;10.70;;;5.57;;
13590;SDS011;6866;50.778;7.206;2023-04-24T13:02:21;15.05;;;5.30;;
13590;SDS011;6866;50.778;7.206;2023-04-24T13:04:47;14.43;;;5.90;;
13590;SDS011;6866;50.778;7.206;2023-04-24T13:07:13;10.52;;;5.20;;
13590;SDS011;6866;50.778;7.206;2023-04-24T13:09:39;15.20;;;6.35;;
13590;SDS011;6866;50.778;7.206;2023-04-24T13:12:06;10.32;;;5.43;;
13590;SDS011;6866;50.778;7.206;2023-04-24T13:14:32;13.45;;;5.50;;
13590;SDS011;6866;50.778;7.206;2023-04-24T13:16:58;13.25;;;5.70;;
13590;SDS011;6866;50.778;7.206;2023-04-24T13:19:24;13.38;;;5.70;;
13590;SDS011;6866;50.778;7.206;2023-04-24T13:21:54;16.63;;;6.03;;
13590;SDS011;6866;50.778;7.206;2023-04-24T13:24:21;11.63;;;5.68;;
13590;SDS011;6866;50.778;7.206;2023-04-24T13:26:49;15.27;;;5.72;;
13590;SDS011;6866;50.778;7.206;2023-04-24T13:29:15;13.65;;;5.53;;
13590;SDS011;6866;50.778;7.206;2023-04-24T13:31:41;14.50;;;5.63;;
13590;SDS011;6866;50.778;7.206;2023-04-24T13:34:06;11.23;;;4.80;;
13590;SDS011;6866;50.778;7.206;2023-04-24T13:36:32;12.95;;;4.78;;
13590;SDS011;6866;50.778;7.206;2023-04-24T13:38:57;13.82;;;5.38;;
13590;SDS011;6866;50.778;7.206;2023-04-24T13:41:23;10.85;;;5.07;;
13590;SDS011;6866;50.778;7.206;2023-04-24T13:43:49;14.60;;;5.25;;
13590;SDS011;6866;50.778;7.206;2023-04-24T13:46:15;12.70;;;5.18;;
13590;SDS011;6866;50.778;7.206;2023-04-24T13:48:41;11.88;;;5.20;;
13590;SDS011;6866;50.778;7.206;2023-04-24T13:51:06;14.13;;;5.18;;
13590;SDS011;6866;50.778;7.206;2023-04-24T13:53:32;13.77;;;5.65;;
13590;SDS011;6866;50.778;7.206;2023-04-24T13:56:00;11.02;;;4.78;;
13590;SDS011;6866;50.778;7.206;2023-04-24T13:58:27;14.35;;;6.25;;
13590;SDS011;6866;50.778;7.206;2023-04-24T14:00:52;14.48;;;5.32;;
13590;SDS011;6866;50.778;7.206;2023-04-24T14:03:18;9.27;;;4.63;;
13590;SDS011;6866;50.778;7.206;2023-04-24T14:05:43;12.65;;;4.78;;
13590;SDS011;6866;50.778;7.206;2023-04-24T14:08:09;13.57;;;5.68;;
13590;SDS011;6866;50.778;7.206;2023-04-24T14:10:34;11.82;;;5.05;;
13590;SDS011;6866;50.778;7.206;2023-04-24T14:13:00;13.63;;;5.22;;
13590;SDS011;6866;50.778;7.206;2023-04-24T14:15:26;13.18;;;5.43;;
13590;SDS011;6866;50.778;7.206;2023-04-24T14:17:51;15.00;;;5.40;;
13590;SDS011;6866;50.778;7.206;2023-04-24T14:20:17;11.35;;;5.10;;
13590;SDS011;6866;50.778;7.206;2023-04-24T14:22:42;12.52;;;5.25;;
13590;SDS011;6866;50.778;7.206;2023-04-24T14:25:08;10.93;;;5.03;;
13590;SDS011;6866;50.778;7.206;2023-04-24T14:27:34;14.65;;;5.88;;
13590;SDS011;6866;50.778;7.206;2023-04-24T14:30:00;10.38;;;5.10;;
13590;SDS011;6866;50.778;7.206;2023-04-24T14:32:25;11.75;;;5.05;;
13590;SDS011;6866;50.778;7.206;2023-04-24T14:34:51;10.63;;;4.97;;
13590;SDS011;6866;50.778;7.206;2023-04-24T14:37:17;9.20;;;4.68;;
13590;SDS011;6866;50.778;7.206;2023-04-24T14:39:42;11.05;;;4.97;;
13590;SDS011;6866;50.778;7.206;2023-04-24T14:42:08;14.85;;;4.95;;
13590;SDS011;6866;50.778;7.206;2023-04-24T14:44:33;12.00;;;5.00;;
13590;SDS011;6866;50.778;7.206;2023-04-24T14:46:59;10.90;;;5.22;;
13590;SDS011;6866;50.778;7.206;2023-04-24T14:49:25;10.93;;;5.00;;
13590;SDS011;6866;50.778;7.206;2023-04-24T14:51:50;11.35;;;4.93;;
13590;SDS011;6866;50.778;7.206;2023-04-24T14:54:16;12.50;;;5.10;;
13590;SDS011;6866;50.778;7.206;2023-04-24T14:56:41;11.32;;;4.57;;
13590;SDS011;6866;50.778;7.206;2023-04-24T14:59:09;11.48;;;4.75;;
13590;SDS011;6866;50.778;7.206;2023-04-24T15:01:35;10.55;;;4.57;;
13590;SDS011;6866;50.778;7.206;2023-04-24T15:04:01;13.07;;;4.95;;
13590;SDS011;6866;50.778;7.206;2023-04-24T15:06:26;9.45;;;4.25;;
13590;SDS011;6866;50.778;7.206;2023-04-24T15:08:52;11.23;;;4.50;;
13590;SDS011;6866;50.778;7.206;2023-04-24T15:11:17;8.60;;;3.97;;
13590;SDS011;6866;50.778;7.206;2023-04-24T15:13:43;7.45;;;3.92;;